sensor_id;sensor_type;location;lat;lon;timestamp;P1;durP1;ratioP1;P2;durP2;ratioP2
78989;SDS011;68390;52.130;21.218;2023-04-28T00:01:41;48.33;;;23.80;;
78989;SDS011;68390;52.130;21.218;2023-04-28T00:04:06;47.33;;;24.48;;
78989;SDS011;68390;52.130;21.218;2023-04-28T00:06:32;45.38;;;22.67;;
78989;SDS011;68390;52.130;21.218;2023-04-28T00:08:57;51.87;;;24.50;;
78989;SDS011;68390;52.130;21.218;2023-04-28T00:11:23;49.65;;;23.65;;
78989;SDS011;68390;52.130;21.218;2023-04-28T00:13:48;47.40;;;25.07;;
78989;SDS011;68390;52.130;21.218;2023-04-28T00:16:13;46.10;;;23.87;;
78989;SDS011;68390;52.130;21.218;2023-04-28T00:18:39;42.70;;;21.65;;
78989;SDS011;68390;52.130;21.218;2023-04-28T00:21:04;47.40;;;24.23;;
78989;SDS011;68390;52.130;21.218;2023-04-28T00:23:30;49.83;;;23.70;;
78989;SDS011;68390;52.130;21.218;2023-04-28T00:25:55;42.38;;;21.30;;
78989;SDS011;68390;52.130;21.218;2023-04-28T00:28:21;41.50;;;22.33;;
78989;SDS011;68390;52.130;21.218;2023-04-28T00:30:47;40.75;;;21.33;;
78989;SDS011;68390;52.130;21.218;2023-04-28T00:33:12;43.03;;;23.27;;
78989;SDS011;68390;52.130;21.218;2023-04-28T00:35:38;42.22;;;22.40;;
78989;SDS011;68390;52.130;21.218;2023-04-28T00:38:04;44.20;;;21.48;;
78989;SDS011;68390;52.130;21.218;2023-04-28T00:40:33;39.17;;;21.00;;
78989;SDS011;68390;52.130;21.218;2023-04-28T00:43:02;48.85;;;22.92;;
78989;SDS011;68390;52.130;21.218;2023-04-28T00:45:29;42.05;;;20.63;;
78989;SDS011;68390;52.130;21.218;2023-04-28T00:47:55;43.28;;;23.95;;
78989;SDS011;68390;52.130;21.218;2023-04-28T00:50:21;46.17;;;22.95;;
78989;SDS011;68390;52.130;21.218;2023-04-28T00:52:48;46.00;;;23.15;;
78989;SDS011;68390;52.130;21.218;2023-04-28T00:55:14;43.47;;;23.65;;
78989;SDS011;68390;52.130;21.218;2023-04-28T00:57:41;41.53;;;20.65;;
78989;SDS011;68390;52.130;21.218;2023-04-28T01:00:07;37.72;;;19.48;;
78989;SDS011;68390;52.130;21.218;2023-04-28T01:02:34;34.50;;;19.85;;
78989;SDS011;68390;52.130;21.218;2023-04-28T01:05:00;36.58;;;19.80;;
78989;SDS011;68390;52.130;21.218;2023-04-28T01:07:26;33.30;;;18.35;;
78989;SDS011;68390;52.130;21.218;2023-04-28T01:09:52;31.88;;;16.23;;
78989;SDS011;68390;52.130;21.218;2023-04-28T01:12:18;34.17;;;16.83;;
78989;SDS011;68390;52.130;21.218;2023-04-28T01:14:43;39.37;;;17.80;;
78989;SDS011;68390;52.130;21.218;2023-04-28T01:17:09;33.97;;;18.40;;
78989;SDS011;68390;52.130;21.218;2023-04-28T01:19:35;40.00;;;18.15;;
78989;SDS011;68390;52.130;21.218;2023-04-28T01:22:00;36.38;;;19.30;;
78989;SDS011;68390;52.130;21.218;2023-04-28T01:24:26;37.05;;;19.38;;
78989;SDS011;68390;52.130;21.218;2023-04-28T01:26:51;36.15;;;18.77;;
78989;SDS011;68390;52.130;21.218;2023-04-28T01:29:17;32.88;;;17.02;;
78989;SDS011;68390;52.130;21.218;2023-04-28T01:31:44;38.10;;;20.48;;
78989;SDS011;68390;52.130;21.218;2023-04-28T01:34:09;39.90;;;20.37;;
78989;SDS011;68390;52.130;21.218;2023-04-28T01:36:34;46.83;;;21.85;;
78989;SDS011;68390;52.130;21.218;2023-04-28T01:39:00;34.63;;;18.10;;
78989;SDS011;68390;52.130;21.218;2023-04-28T01:41:25;37.25;;;19.52;;
78989;SDS011;68390;52.130;21.218;2023-04-28T01:43:51;32.47;;;17.65;;
78989;SDS011;68390;52.130;21.218;2023-04-28T01:46:16;38.17;;;19.27;;
78989;SDS011;68390;52.130;21.218;2023-04-28T01:48:42;37.15;;;20.48;;
78989;SDS011;68390;52.130;21.218;2023-04-28T01:51:07;37.83;;;18.20;;
78989;SDS011;68390;52.130;21.218;2023-04-28T01:53:33;37.87;;;20.33;;
78989;SDS011;68390;52.130;21.218;2023-04-28T01:55:58;45.73;;;21.27;;
78989;SDS011;68390;52.130;21.218;2023-04-28T01:58:24;50.70;;;24.55;;
78989;SDS011;68390;52.130;21.218;2023-04-28T02:00:49;42.45;;;20.50;;
78989;SDS011;68390;52.130;21.218;2023-04-28T02:03:15;46.63;;;20.85;;
78989;SDS011;68390;52.130;21.218;2023-04-28T02:05:40;44.55;;;22.02;;
78989;SDS011;68390;52.130;21.218;2023-04-28T02:08:05;52.50;;;22.70;;
78989;SDS011;68390;52.130;21.218;2023-04-28T02:10:31;50.63;;;23.90;;
78989;SDS011;68390;52.130;21.218;2023-04-28T02:12:56;62.80;;;29.33;;
78989;SDS011;68390;52.130;21.218;2023-04-28T02:15:22;69.90;;;30.83;;
78989;SDS011;68390;52.130;21.218;2023-04-28T02:17:47;69.03;;;30.85;;
78989;SDS011;68390;52.130;21.218;2023-04-28T02:20:13;69.78;;;32.70;;
78989;SDS011;68390;52.130;21.218;2023-04-28T02:22:39;76.20;;;30.25;;
78989;SDS011;68390;52.130;21.218;2023-04-28T02:25:04;71.40;;;32.45;;
78989;SDS011;68390;52.130;21.218;2023-04-28T02:27:30;72.13;;;32.33;;
78989;SDS011;68390;52.130;21.218;2023-04-28T02:29:56;65.00;;;30.60;;
78989;SDS011;68390;52.130;21.218;2023-04-28T02:32:21;67.90;;;31.10;;
78989;SDS011;68390;52.130;21.218;2023-04-28T02:34:51;73.83;;;31.50;;
78989;SDS011;68390;52.130;21.218;2023-04-28T02:37:17;66.57;;;30.60;;
78989;SDS011;68390;52.130;21.218;2023-04-28T02:39:42;53.57;;;25.50;;
78989;SDS011;68390;52.130;21.218;2023-04-28T02:42:07;60.47;;;30.00;;
78989;SDS011;68390;52.130;21.218;2023-04-28T02:44:33;62.72;;;29.60;;
78989;SDS011;68390;52.130;21.218;2023-04-28T02:46:59;63.72;;;30.35;;
78989;SDS011;68390;52.130;21.218;2023-04-28T02:49:25;54.25;;;28.30;;
78989;SDS011;68390;52.130;21.218;2023-04-28T02:51:51;57.17;;;29.63;;
78989;SDS011;68390;52.130;21.218;2023-04-28T02:54:16;58.70;;;29.25;;
78989;SDS011;68390;52.130;21.218;2023-04-28T02:56:51;48.78;;;24.13;;
78989;SDS011;68390;52.130;21.218;2023-04-28T02:59:16;58.35;;;28.77;;
78989;SDS011;68390;52.130;21.218;2023-04-28T03:01:42;58.87;;;29.47;;
78989;SDS011;68390;52.130;21.218;2023-04-28T03:04:07;61.00;;;28.23;;
78989;SDS011;68390;52.130;21.218;2023-04-28T03:06:32;57.47;;;27.13;;
78989;SDS011;68390;52.130;21.218;2023-04-28T03:08:58;55.22;;;29.08;;
78989;SDS011;68390;52.130;21.218;2023-04-28T03:11:23;51.60;;;25.57;;
78989;SDS011;68390;52.130;21.218;2023-04-28T03:13:49;59.65;;;28.00;;
78989;SDS011;68390;52.130;21.218;2023-04-28T03:16:15;57.55;;;26.70;;
78989;SDS011;68390;52.130;21.218;2023-04-28T03:18:40;144.35;;;34.65;;
78989;SDS011;68390;52.130;21.218;2023-04-28T03:21:05;1033.93;;;123.32;;
78989;SDS011;68390;52.130;21.218;2023-04-28T03:23:31;282.95;;;50.58;;
78989;SDS011;68390;52.130;21.218;2023-04-28T03:25:56;201.80;;;42.17;;
78989;SDS011;68390;52.130;21.218;2023-04-28T03:28:22;71.87;;;36.33;;
78989;SDS011;68390;52.130;21.218;2023-04-28T03:30:47;79.72;;;37.88;;
78989;SDS011;68390;52.130;21.218;2023-04-28T03:33:12;69.87;;;34.83;;
78989;SDS011;68390;52.130;21.218;2023-04-28T03:35:38;61.63;;;32.87;;
78989;SDS011;68390;52.130;21.218;2023-04-28T03:38:03;66.07;;;32.92;;
78989;SDS011;68390;52.130;21.218;2023-04-28T03:40:28;69.10;;;34.73;;
78989;SDS011;68390;52.130;21.218;2023-04-28T03:42:54;61.33;;;33.90;;
78989;SDS011;68390;52.130;21.218;2023-04-28T03:45:20;70.75;;;37.97;;
78989;SDS011;68390;52.130;21.218;2023-04-28T03:47:46;74.07;;;38.95;;
78989;SDS011;68390;52.130;21.218;2023-04-28T03:50:11;69.17;;;39.03;;
78989;SDS011;68390;52.130;21.218;2023-04-28T03:52:36;83.35;;;41.88;;
78989;SDS011;68390;52.130;21.218;2023-04-28T03:55:02;66.63;;;37.75;;
78989;SDS011;68390;52.130;21.218;2023-04-28T03:57:28;78.55;;;42.03;;
78989;SDS011;68390;52.130;21.218;2023-04-28T03:59:53;81.22;;;43.65;;
78989;SDS011;68390;52.130;21.218;2023-04-28T04:02:19;79.45;;;42.83;;
78989;SDS011;68390;52.130;21.218;2023-04-28T04:04:44;77.27;;;40.13;;
78989;SDS011;68390;52.130;21.218;2023-04-28T04:07:10;76.90;;;42.87;;
78989;SDS011;68390;52.130;21.218;2023-04-28T04:09:35;85.72;;;46.47;;
78989;SDS011;68390;52.130;21.218;2023-04-28T04:12:00;71.73;;;41.80;;
78989;SDS011;68390;52.130;21.218;2023-04-28T04:14:26;87.55;;;47.53;;
78989;SDS011;68390;52.130;21.218;2023-04-28T04:16:51;80.47;;;40.95;;
78989;SDS011;68390;52.130;21.218;2023-04-28T04:19:17;72.95;;;38.83;;
78989;SDS011;68390;52.130;21.218;2023-04-28T04:21:42;89.97;;;50.58;;
78989;SDS011;68390;52.130;21.218;2023-04-28T04:24:08;71.00;;;39.63;;
78989;SDS011;68390;52.130;21.218;2023-04-28T04:26:33;77.57;;;46.13;;
78989;SDS011;68390;52.130;21.218;2023-04-28T04:28:58;86.77;;;47.50;;
78989;SDS011;68390;52.130;21.218;2023-04-28T04:31:24;86.07;;;47.00;;
78989;SDS011;68390;52.130;21.218;2023-04-28T04:33:49;81.82;;;41.97;;
78989;SDS011;68390;52.130;21.218;2023-04-28T04:36:14;92.55;;;50.50;;
78989;SDS011;68390;52.130;21.218;2023-04-28T04:38:40;87.88;;;44.03;;
78989;SDS011;68390;52.130;21.218;2023-04-28T04:41:05;74.30;;;41.25;;
78989;SDS011;68390;52.130;21.218;2023-04-28T04:43:31;77.93;;;39.97;;
78989;SDS011;68390;52.130;21.218;2023-04-28T04:45:56;79.45;;;45.40;;
78989;SDS011;68390;52.130;21.218;2023-04-28T04:48:21;79.85;;;45.88;;
78989;SDS011;68390;52.130;21.218;2023-04-28T04:50:47;83.70;;;45.37;;
78989;SDS011;68390;52.130;21.218;2023-04-28T04:53:13;85.05;;;44.22;;
78989;SDS011;68390;52.130;21.218;2023-04-28T04:55:38;92.95;;;46.33;;
78989;SDS011;68390;52.130;21.218;2023-04-28T04:58:04;86.32;;;42.90;;
78989;SDS011;68390;52.130;21.218;2023-04-28T05:00:29;81.28;;;41.88;;
78989;SDS011;68390;52.130;21.218;2023-04-28T05:02:55;76.80;;;42.63;;
78989;SDS011;68390;52.130;21.218;2023-04-28T05:05:20;64.57;;;37.10;;
78989;SDS011;68390;52.130;21.218;2023-04-28T05:07:45;61.38;;;34.03;;
78989;SDS011;68390;52.130;21.218;2023-04-28T05:10:11;56.08;;;30.77;;
78989;SDS011;68390;52.130;21.218;2023-04-28T05:12:37;61.15;;;34.45;;
78989;SDS011;68390;52.130;21.218;2023-04-28T05:15:03;48.53;;;28.30;;
78989;SDS011;68390;52.130;21.218;2023-04-28T05:17:30;58.60;;;30.88;;
78989;SDS011;68390;52.130;21.218;2023-04-28T05:19:56;45.53;;;24.05;;
78989;SDS011;68390;52.130;21.218;2023-04-28T05:22:21;48.33;;;25.27;;
78989;SDS011;68390;52.130;21.218;2023-04-28T05:24:47;47.00;;;22.92;;
78989;SDS011;68390;52.130;21.218;2023-04-28T05:27:12;39.05;;;21.30;;
78989;SDS011;68390;52.130;21.218;2023-04-28T05:29:37;47.93;;;24.67;;
78989;SDS011;68390;52.130;21.218;2023-04-28T05:32:03;51.95;;;27.25;;
78989;SDS011;68390;52.130;21.218;2023-04-28T05:34:28;34.10;;;18.83;;
78989;SDS011;68390;52.130;21.218;2023-04-28T05:36:53;33.67;;;17.23;;
78989;SDS011;68390;52.130;21.218;2023-04-28T05:39:19;36.47;;;18.67;;
78989;SDS011;68390;52.130;21.218;2023-04-28T05:41:44;30.40;;;18.30;;
78989;SDS011;68390;52.130;21.218;2023-04-28T05:44:10;31.67;;;16.20;;
78989;SDS011;68390;52.130;21.218;2023-04-28T05:46:35;29.48;;;15.50;;
78989;SDS011;68390;52.130;21.218;2023-04-28T05:49:01;28.50;;;16.02;;
78989;SDS011;68390;52.130;21.218;2023-04-28T05:51:27;27.73;;;13.98;;
78989;SDS011;68390;52.130;21.218;2023-04-28T05:53:52;30.65;;;16.52;;
78989;SDS011;68390;52.130;21.218;2023-04-28T05:56:18;25.77;;;13.88;;
78989;SDS011;68390;52.130;21.218;2023-04-28T05:58:44;26.17;;;15.27;;
78989;SDS011;68390;52.130;21.218;2023-04-28T06:01:11;23.52;;;13.45;;
78989;SDS011;68390;52.130;21.218;2023-04-28T06:03:36;31.48;;;16.77;;
78989;SDS011;68390;52.130;21.218;2023-04-28T06:06:02;31.40;;;14.50;;
78989;SDS011;68390;52.130;21.218;2023-04-28T06:08:27;26.65;;;14.32;;
78989;SDS011;68390;52.130;21.218;2023-04-28T06:10:53;28.02;;;14.35;;
78989;SDS011;68390;52.130;21.218;2023-04-28T06:13:18;25.27;;;14.43;;
78989;SDS011;68390;52.130;21.218;2023-04-28T06:15:44;26.80;;;13.57;;
78989;SDS011;68390;52.130;21.218;2023-04-28T06:18:09;28.25;;;14.27;;
78989;SDS011;68390;52.130;21.218;2023-04-28T06:20:35;28.25;;;14.38;;
78989;SDS011;68390;52.130;21.218;2023-04-28T06:23:00;23.10;;;13.32;;
78989;SDS011;68390;52.130;21.218;2023-04-28T06:25:27;25.30;;;13.60;;
78989;SDS011;68390;52.130;21.218;2023-04-28T06:27:53;24.65;;;13.70;;
78989;SDS011;68390;52.130;21.218;2023-04-28T06:30:21;25.27;;;12.57;;
78989;SDS011;68390;52.130;21.218;2023-04-28T06:32:47;21.33;;;12.52;;
78989;SDS011;68390;52.130;21.218;2023-04-28T06:35:14;24.13;;;13.18;;
78989;SDS011;68390;52.130;21.218;2023-04-28T06:37:40;22.13;;;11.43;;
78989;SDS011;68390;52.130;21.218;2023-04-28T06:40:05;19.55;;;10.95;;
78989;SDS011;68390;52.130;21.218;2023-04-28T06:42:31;18.10;;;10.23;;
78989;SDS011;68390;52.130;21.218;2023-04-28T06:44:57;17.33;;;9.70;;
78989;SDS011;68390;52.130;21.218;2023-04-28T06:47:22;19.73;;;11.20;;
78989;SDS011;68390;52.130;21.218;2023-04-28T06:49:48;19.42;;;10.77;;
78989;SDS011;68390;52.130;21.218;2023-04-28T06:52:14;18.73;;;9.50;;
78989;SDS011;68390;52.130;21.218;2023-04-28T06:54:40;16.40;;;7.88;;
78989;SDS011;68390;52.130;21.218;2023-04-28T06:57:05;16.17;;;9.55;;
78989;SDS011;68390;52.130;21.218;2023-04-28T06:59:31;11.85;;;7.63;;
78989;SDS011;68390;52.130;21.218;2023-04-28T07:01:56;12.48;;;6.55;;
78989;SDS011;68390;52.130;21.218;2023-04-28T07:04:22;17.40;;;8.85;;
78989;SDS011;68390;52.130;21.218;2023-04-28T07:06:47;11.85;;;6.15;;
78989;SDS011;68390;52.130;21.218;2023-04-28T07:09:12;10.27;;;5.78;;
78989;SDS011;68390;52.130;21.218;2023-04-28T07:11:39;9.38;;;5.28;;
78989;SDS011;68390;52.130;21.218;2023-04-28T07:14:05;11.20;;;6.00;;
78989;SDS011;68390;52.130;21.218;2023-04-28T07:16:32;8.27;;;4.22;;
78989;SDS011;68390;52.130;21.218;2023-04-28T07:18:57;9.38;;;4.05;;
78989;SDS011;68390;52.130;21.218;2023-04-28T07:21:23;8.50;;;5.03;;
78989;SDS011;68390;52.130;21.218;2023-04-28T07:23:48;11.85;;;4.63;;
78989;SDS011;68390;52.130;21.218;2023-04-28T07:26:14;6.18;;;4.00;;
78989;SDS011;68390;52.130;21.218;2023-04-28T07:28:40;10.18;;;3.97;;
78989;SDS011;68390;52.130;21.218;2023-04-28T07:31:06;9.90;;;4.90;;
78989;SDS011;68390;52.130;21.218;2023-04-28T07:33:32;9.75;;;4.90;;
78989;SDS011;68390;52.130;21.218;2023-04-28T07:35:57;9.60;;;5.30;;
78989;SDS011;68390;52.130;21.218;2023-04-28T07:38:23;10.13;;;6.03;;
78989;SDS011;68390;52.130;21.218;2023-04-28T07:40:48;9.03;;;4.57;;
78989;SDS011;68390;52.130;21.218;2023-04-28T07:43:13;9.50;;;5.45;;
78989;SDS011;68390;52.130;21.218;2023-04-28T07:45:39;10.98;;;5.22;;
78989;SDS011;68390;52.130;21.218;2023-04-28T07:48:05;10.15;;;4.25;;
78989;SDS011;68390;52.130;21.218;2023-04-28T07:50:30;9.38;;;4.60;;
78989;SDS011;68390;52.130;21.218;2023-04-28T07:52:56;9.70;;;4.25;;
78989;SDS011;68390;52.130;21.218;2023-04-28T07:55:22;5.50;;;3.25;;
78989;SDS011;68390;52.130;21.218;2023-04-28T07:57:48;4.35;;;2.28;;
78989;SDS011;68390;52.130;21.218;2023-04-28T08:00:14;8.18;;;4.40;;
78989;SDS011;68390;52.130;21.218;2023-04-28T08:02:39;9.98;;;4.57;;
78989;SDS011;68390;52.130;21.218;2023-04-28T08:05:05;8.57;;;4.50;;
78989;SDS011;68390;52.130;21.218;2023-04-28T08:07:32;7.28;;;4.05;;
78989;SDS011;68390;52.130;21.218;2023-04-28T08:09:58;7.35;;;3.97;;
78989;SDS011;68390;52.130;21.218;2023-04-28T08:12:23;6.28;;;3.50;;
78989;SDS011;68390;52.130;21.218;2023-04-28T08:14:48;3.93;;;2.93;;
78989;SDS011;68390;52.130;21.218;2023-04-28T08:17:14;5.13;;;2.83;;
78989;SDS011;68390;52.130;21.218;2023-04-28T08:19:39;4.00;;;2.72;;
78989;SDS011;68390;52.130;21.218;2023-04-28T08:22:05;6.35;;;3.20;;
78989;SDS011;68390;52.130;21.218;2023-04-28T08:24:31;7.05;;;3.70;;
78989;SDS011;68390;52.130;21.218;2023-04-28T08:27:00;6.53;;;3.83;;
78989;SDS011;68390;52.130;21.218;2023-04-28T08:29:30;8.20;;;4.28;;
78989;SDS011;68390;52.130;21.218;2023-04-28T08:31:56;11.80;;;4.90;;
78989;SDS011;68390;52.130;21.218;2023-04-28T08:34:22;8.57;;;4.75;;
78989;SDS011;68390;52.130;21.218;2023-04-28T08:36:48;9.88;;;4.57;;
78989;SDS011;68390;52.130;21.218;2023-04-28T08:39:13;9.27;;;4.70;;
78989;SDS011;68390;52.130;21.218;2023-04-28T08:41:40;9.35;;;4.60;;
78989;SDS011;68390;52.130;21.218;2023-04-28T08:44:07;7.57;;;4.40;;
78989;SDS011;68390;52.130;21.218;2023-04-28T08:46:33;7.93;;;4.65;;
78989;SDS011;68390;52.130;21.218;2023-04-28T08:49:00;8.48;;;4.47;;
78989;SDS011;68390;52.130;21.218;2023-04-28T08:51:32;11.10;;;4.63;;
78989;SDS011;68390;52.130;21.218;2023-04-28T08:54:00;7.03;;;4.20;;
78989;SDS011;68390;52.130;21.218;2023-04-28T08:56:30;8.43;;;4.45;;
78989;SDS011;68390;52.130;21.218;2023-04-28T09:01:25;9.35;;;4.55;;
78989;SDS011;68390;52.130;21.218;2023-04-28T09:03:52;8.30;;;4.47;;
78989;SDS011;68390;52.130;21.218;2023-04-28T09:06:18;9.20;;;4.50;;
78989;SDS011;68390;52.130;21.218;2023-04-28T09:08:43;7.32;;;4.38;;
78989;SDS011;68390;52.130;21.218;2023-04-28T09:11:09;9.07;;;4.15;;
78989;SDS011;68390;52.130;21.218;2023-04-28T09:13:37;8.93;;;4.25;;
78989;SDS011;68390;52.130;21.218;2023-04-28T09:16:04;8.13;;;4.20;;
78989;SDS011;68390;52.130;21.218;2023-04-28T09:18:29;7.05;;;3.63;;
78989;SDS011;68390;52.130;21.218;2023-04-28T09:21:07;6.85;;;3.92;;
78989;SDS011;68390;52.130;21.218;2023-04-28T09:23:55;6.78;;;3.50;;
78989;SDS011;68390;52.130;21.218;2023-04-28T09:26:20;6.05;;;3.45;;
78989;SDS011;68390;52.130;21.218;2023-04-28T09:28:45;8.65;;;3.80;;
78989;SDS011;68390;52.130;21.218;2023-04-28T09:31:23;6.82;;;3.90;;
78989;SDS011;68390;52.130;21.218;2023-04-28T09:33:56;7.60;;;3.92;;
78989;SDS011;68390;52.130;21.218;2023-04-28T09:36:25;6.75;;;4.15;;
78989;SDS011;68390;52.130;21.218;2023-04-28T09:38:54;5.53;;;3.78;;
78989;SDS011;68390;52.130;21.218;2023-04-28T09:41:21;7.00;;;3.78;;
78989;SDS011;68390;52.130;21.218;2023-04-28T09:44:08;6.13;;;3.67;;
78989;SDS011;68390;52.130;21.218;2023-04-28T09:46:37;5.50;;;3.58;;
78989;SDS011;68390;52.130;21.218;2023-04-28T09:49:03;9.48;;;4.03;;
78989;SDS011;68390;52.130;21.218;2023-04-28T09:51:29;7.05;;;3.92;;
78989;SDS011;68390;52.130;21.218;2023-04-28T09:53:54;6.32;;;3.70;;
78989;SDS011;68390;52.130;21.218;2023-04-28T09:56:24;5.43;;;3.67;;
78989;SDS011;68390;52.130;21.218;2023-04-28T09:58:52;5.93;;;3.75;;
78989;SDS011;68390;52.130;21.218;2023-04-28T10:01:18;6.00;;;3.92;;
78989;SDS011;68390;52.130;21.218;2023-04-28T10:03:44;6.88;;;3.97;;
78989;SDS011;68390;52.130;21.218;2023-04-28T10:06:10;6.30;;;3.83;;
78989;SDS011;68390;52.130;21.218;2023-04-28T10:08:35;9.18;;;4.30;;
78989;SDS011;68390;52.130;21.218;2023-04-28T10:11:02;6.65;;;3.80;;
78989;SDS011;68390;52.130;21.218;2023-04-28T10:13:28;7.85;;;3.65;;
78989;SDS011;68390;52.130;21.218;2023-04-28T10:15:53;6.90;;;3.83;;
78989;SDS011;68390;52.130;21.218;2023-04-28T10:18:19;9.45;;;4.25;;
78989;SDS011;68390;52.130;21.218;2023-04-28T10:20:47;7.85;;;3.60;;
78989;SDS011;68390;52.130;21.218;2023-04-28T10:25:54;7.18;;;3.75;;
78989;SDS011;68390;52.130;21.218;2023-04-28T10:28:21;7.07;;;3.65;;
78989;SDS011;68390;52.130;21.218;2023-04-28T10:33:38;8.05;;;3.72;;
78989;SDS011;68390;52.130;21.218;2023-04-28T10:36:05;6.03;;;3.78;;
78989;SDS011;68390;52.130;21.218;2023-04-28T10:38:31;6.22;;;3.80;;
78989;SDS011;68390;52.130;21.218;2023-04-28T10:40:57;4.97;;;3.70;;
78989;SDS011;68390;52.130;21.218;2023-04-28T10:45:58;7.57;;;3.88;;
78989;SDS011;68390;52.130;21.218;2023-04-28T10:56:09;7.50;;;4.20;;
78989;SDS011;68390;52.130;21.218;2023-04-28T10:58:39;5.07;;;3.42;;
78989;SDS011;68390;52.130;21.218;2023-04-28T11:03:58;7.03;;;3.30;;
78989;SDS011;68390;52.130;21.218;2023-04-28T11:08:57;8.38;;;3.45;;
78989;SDS011;68390;52.130;21.218;2023-04-28T11:11:34;6.65;;;3.28;;
78989;SDS011;68390;52.130;21.218;2023-04-28T11:19:29;6.78;;;3.22;;
78989;SDS011;68390;52.130;21.218;2023-04-28T11:21:56;4.88;;;3.10;;
78989;SDS011;68390;52.130;21.218;2023-04-28T11:24:25;6.97;;;3.53;;
78989;SDS011;68390;52.130;21.218;2023-04-28T11:26:56;5.72;;;3.20;;
78989;SDS011;68390;52.130;21.218;2023-04-28T11:29:35;6.32;;;3.53;;
78989;SDS011;68390;52.130;21.218;2023-04-28T11:32:04;6.95;;;3.75;;
78989;SDS011;68390;52.130;21.218;2023-04-28T11:36:57;6.45;;;3.30;;
78989;SDS011;68390;52.130;21.218;2023-04-28T11:39:31;6.80;;;3.53;;
78989;SDS011;68390;52.130;21.218;2023-04-28T11:41:58;4.72;;;3.45;;
78989;SDS011;68390;52.130;21.218;2023-04-28T11:44:26;5.60;;;3.20;;
78989;SDS011;68390;52.130;21.218;2023-04-28T11:46:54;6.65;;;3.33;;
78989;SDS011;68390;52.130;21.218;2023-04-28T11:49:21;6.03;;;3.35;;
78989;SDS011;68390;52.130;21.218;2023-04-28T11:51:52;6.05;;;3.40;;
78989;SDS011;68390;52.130;21.218;2023-04-28T11:54:25;6.85;;;3.45;;
78989;SDS011;68390;52.130;21.218;2023-04-28T11:56:52;10.85;;;4.03;;
78989;SDS011;68390;52.130;21.218;2023-04-28T11:59:22;6.20;;;3.25;;
78989;SDS011;68390;52.130;21.218;2023-04-28T12:01:55;4.60;;;3.20;;
78989;SDS011;68390;52.130;21.218;2023-04-28T12:07:01;9.35;;;4.10;;
78989;SDS011;68390;52.130;21.218;2023-04-28T12:09:29;5.78;;;3.20;;
78989;SDS011;68390;52.130;21.218;2023-04-28T12:11:56;8.00;;;3.45;;
78989;SDS011;68390;52.130;21.218;2023-04-28T12:14:23;6.18;;;3.30;;
78989;SDS011;68390;52.130;21.218;2023-04-28T12:16:49;6.03;;;3.53;;
78989;SDS011;68390;52.130;21.218;2023-04-28T12:19:15;5.65;;;3.25;;
78989;SDS011;68390;52.130;21.218;2023-04-28T12:21:41;4.05;;;2.97;;
78989;SDS011;68390;52.130;21.218;2023-04-28T12:26:39;5.57;;;3.42;;
78989;SDS011;68390;52.130;21.218;2023-04-28T12:29:05;8.43;;;3.63;;
78989;SDS011;68390;52.130;21.218;2023-04-28T12:31:30;7.60;;;3.70;;
78989;SDS011;68390;52.130;21.218;2023-04-28T12:33:56;7.05;;;3.10;;
78989;SDS011;68390;52.130;21.218;2023-04-28T12:36:21;7.57;;;3.45;;
78989;SDS011;68390;52.130;21.218;2023-04-28T12:38:47;6.82;;;3.67;;
78989;SDS011;68390;52.130;21.218;2023-04-28T12:41:13;9.50;;;3.92;;
78989;SDS011;68390;52.130;21.218;2023-04-28T12:43:39;6.10;;;3.58;;
78989;SDS011;68390;52.130;21.218;2023-04-28T12:46:05;7.93;;;3.50;;
78989;SDS011;68390;52.130;21.218;2023-04-28T12:48:32;5.95;;;3.80;;
78989;SDS011;68390;52.130;21.218;2023-04-28T12:50:58;4.93;;;3.83;;
78989;SDS011;68390;52.130;21.218;2023-04-28T12:53:24;7.22;;;3.95;;
78989;SDS011;68390;52.130;21.218;2023-04-28T12:55:50;7.82;;;3.70;;
78989;SDS011;68390;52.130;21.218;2023-04-28T12:58:16;7.63;;;3.90;;
78989;SDS011;68390;52.130;21.218;2023-04-28T13:00:42;7.93;;;4.63;;
78989;SDS011;68390;52.130;21.218;2023-04-28T13:03:07;7.57;;;3.90;;
78989;SDS011;68390;52.130;21.218;2023-04-28T13:05:33;7.20;;;3.88;;
78989;SDS011;68390;52.130;21.218;2023-04-28T13:07:59;5.68;;;3.63;;
78989;SDS011;68390;52.130;21.218;2023-04-28T13:10:24;6.55;;;4.40;;
78989;SDS011;68390;52.130;21.218;2023-04-28T13:12:50;8.52;;;4.50;;
78989;SDS011;68390;52.130;21.218;2023-04-28T13:15:16;6.00;;;4.40;;
78989;SDS011;68390;52.130;21.218;2023-04-28T13:17:41;6.60;;;4.32;;
78989;SDS011;68390;52.130;21.218;2023-04-28T13:20:07;7.85;;;3.88;;
78989;SDS011;68390;52.130;21.218;2023-04-28T13:22:33;6.47;;;4.38;;
78989;SDS011;68390;52.130;21.218;2023-04-28T13:24:58;7.40;;;4.47;;
78989;SDS011;68390;52.130;21.218;2023-04-28T13:27:24;7.40;;;4.60;;
78989;SDS011;68390;52.130;21.218;2023-04-28T13:29:49;9.57;;;4.75;;
78989;SDS011;68390;52.130;21.218;2023-04-28T13:32:15;8.57;;;4.43;;
78989;SDS011;68390;52.130;21.218;2023-04-28T13:34:40;7.63;;;4.50;;
78989;SDS011;68390;52.130;21.218;2023-04-28T13:37:06;8.40;;;4.20;;
78989;SDS011;68390;52.130;21.218;2023-04-28T13:39:31;8.02;;;4.35;;
78989;SDS011;68390;52.130;21.218;2023-04-28T13:41:57;8.48;;;4.80;;
78989;SDS011;68390;52.130;21.218;2023-04-28T13:44:22;9.50;;;4.78;;
78989;SDS011;68390;52.130;21.218;2023-04-28T13:46:48;8.95;;;4.63;;
78989;SDS011;68390;52.130;21.218;2023-04-28T13:49:13;6.15;;;4.38;;
78989;SDS011;68390;52.130;21.218;2023-04-28T13:51:39;6.35;;;4.90;;
78989;SDS011;68390;52.130;21.218;2023-04-28T13:54:05;10.15;;;5.05;;
78989;SDS011;68390;52.130;21.218;2023-04-28T13:56:35;10.02;;;5.22;;
78989;SDS011;68390;52.130;21.218;2023-04-28T13:59:01;9.45;;;4.80;;
78989;SDS011;68390;52.130;21.218;2023-04-28T14:01:27;8.48;;;4.85;;
78989;SDS011;68390;52.130;21.218;2023-04-28T14:03:53;8.05;;;4.80;;
78989;SDS011;68390;52.130;21.218;2023-04-28T14:06:18;8.13;;;4.95;;
78989;SDS011;68390;52.130;21.218;2023-04-28T14:08:44;8.45;;;5.60;;
78989;SDS011;68390;52.130;21.218;2023-04-28T14:11:09;9.45;;;5.25;;
78989;SDS011;68390;52.130;21.218;2023-04-28T14:13:35;8.95;;;5.00;;
78989;SDS011;68390;52.130;21.218;2023-04-28T14:16:01;8.05;;;4.90;;
78989;SDS011;68390;52.130;21.218;2023-04-28T14:18:27;7.53;;;4.68;;
78989;SDS011;68390;52.130;21.218;2023-04-28T14:20:52;8.45;;;4.85;;
78989;SDS011;68390;52.130;21.218;2023-04-28T14:23:18;9.57;;;4.60;;
78989;SDS011;68390;52.130;21.218;2023-04-28T14:25:45;9.13;;;4.70;;
78989;SDS011;68390;52.130;21.218;2023-04-28T14:28:10;8.40;;;5.07;;
78989;SDS011;68390;52.130;21.218;2023-04-28T14:30:36;6.90;;;4.65;;
78989;SDS011;68390;52.130;21.218;2023-04-28T14:33:01;6.38;;;4.72;;
78989;SDS011;68390;52.130;21.218;2023-04-28T14:35:27;6.55;;;4.82;;
78989;SDS011;68390;52.130;21.218;2023-04-28T14:37:54;7.82;;;5.07;;
78989;SDS011;68390;52.130;21.218;2023-04-28T14:40:20;8.13;;;5.25;;
78989;SDS011;68390;52.130;21.218;2023-04-28T14:42:46;9.23;;;4.60;;
78989;SDS011;68390;52.130;21.218;2023-04-28T14:45:11;7.85;;;5.00;;
78989;SDS011;68390;52.130;21.218;2023-04-28T14:47:37;8.77;;;4.78;;
78989;SDS011;68390;52.130;21.218;2023-04-28T14:50:03;8.60;;;4.78;;
78989;SDS011;68390;52.130;21.218;2023-04-28T14:52:29;6.07;;;4.15;;